sensor_id;sensor_type;location;lat;lon;timestamp;pressure;altitude;pressure_sealevel;temperature;humidity
29907;BME280;16776;50.958;10.994;2023-05-23T00:01:43;98163.19;;;16.15;100.00
29907;BME280;16776;50.958;10.994;2023-05-23T00:04:13;98174.56;;;16.12;100.00
29907;BME280;16776;50.958;10.994;2023-05-23T00:06:43;98176.59;;;16.07;100.00
29907;BME280;16776;50.958;10.994;2023-05-23T00:09:11;98167.38;;;16.02;100.00
29907;BME280;16776;50.958;10.994;2023-05-23T00:11:40;98167.47;;;16.00;100.00
29907;BME280;16776;50.958;10.994;2023-05-23T00:14:09;98166.88;;;15.95;100.00
29907;BME280;16776;50.958;10.994;2023-05-23T00:16:38;98163.53;;;15.93;100.00
29907;BME280;16776;50.958;10.994;2023-05-23T00:19:05;98170.50;;;15.93;100.00
29907;BME280;16776;50.958;10.994;2023-05-23T00:21:32;98163.53;;;15.93;100.00
29907;BME280;16776;50.958;10.994;2023-05-23T00:23:58;98166.97;;;15.94;100.00
29907;BME280;16776;50.958;10.994;2023-05-23T00:26:26;98167.72;;;15.96;100.00
29907;BME280;16776;50.958;10.994;2023-05-23T00:28:56;98168.31;;;16.01;100.00
29907;BME280;16776;50.958;10.994;2023-05-23T00:31:23;98171.09;;;15.98;100.00
29907;BME280;16776;50.958;10.994;2023-05-23T00:33:52;98178.81;;;15.99;100.00
29907;BME280;16776;50.958;10.994;2023-05-23T00:36:19;98184.81;;;16.00;100.00
29907;BME280;16776;50.958;10.994;2023-05-23T00:38:46;98182.13;;;16.01;100.00
29907;BME280;16776;50.958;10.994;2023-05-23T00:41:16;98177.78;;;16.02;100.00
29907;BME280;16776;50.958;10.994;2023-05-23T00:43:45;98177.69;;;16.03;100.00
29907;BME280;16776;50.958;10.994;2023-05-23T00:46:13;98183.47;;;16.08;100.00
29907;BME280;16776;50.958;10.994;2023-05-23T00:48:40;98179.28;;;16.06;100.00
29907;BME280;16776;50.958;10.994;2023-05-23T00:51:07;98188.66;;;16.08;100.00
29907;BME280;16776;50.958;10.994;2023-05-23T00:53:33;98185.97;;;16.10;100.00
29907;BME280;16776;50.958;10.994;2023-05-23T00:56:03;98185.06;;;16.11;100.00
29907;BME280;16776;50.958;10.994;2023-05-23T00:58:32;98190.88;;;16.16;100.00
29907;BME280;16776;50.958;10.994;2023-05-23T01:01:00;98193.59;;;16.13;100.00
29907;BME280;16776;50.958;10.994;2023-05-23T01:03:28;98190.03;;;16.15;100.00
29907;BME280;16776;50.958;10.994;2023-05-23T01:05:55;98195.25;;;16.14;100.00
29907;BME280;16776;50.958;10.994;2023-05-23T01:08:22;98199.53;;;16.15;100.00
29907;BME280;16776;50.958;10.994;2023-05-23T01:10:49;98196.06;;;16.16;100.00
29907;BME280;16776;50.958;10.994;2023-05-23T01:13:23;98194.94;;;16.20;100.00
29907;BME280;16776;50.958;10.994;2023-05-23T01:15:57;98191.63;;;16.18;100.00
29907;BME280;16776;50.958;10.994;2023-05-23T01:18:28;98200.91;;;16.22;100.00
29907;BME280;16776;50.958;10.994;2023-05-23T01:20:59;98197.22;;;16.10;100.00
29907;BME280;16776;50.958;10.994;2023-05-23T01:23:59;98200.41;;;16.15;100.00
29907;BME280;16776;50.958;10.994;2023-05-23T01:26:40;98201.84;;;16.05;100.00
29907;BME280;16776;50.958;10.994;2023-05-23T01:29:19;98199.47;;;16.01;100.00
29907;BME280;16776;50.958;10.994;2023-05-23T01:31:48;98196.56;;;15.91;100.00
29907;BME280;16776;50.958;10.994;2023-05-23T01:34:18;98195.03;;;15.87;100.00
29907;BME280;16776;50.958;10.994;2023-05-23T01:36:44;98195.22;;;15.84;100.00
29907;BME280;16776;50.958;10.994;2023-05-23T01:39:11;98197.88;;;15.83;100.00
29907;BME280;16776;50.958;10.994;2023-05-23T01:41:38;98195.47;;;15.79;100.00
29907;BME280;16776;50.958;10.994;2023-05-23T01:44:05;98195.56;;;15.78;100.00
29907;BME280;16776;50.958;10.994;2023-05-23T01:46:34;98197.25;;;15.79;100.00
29907;BME280;16776;50.958;10.994;2023-05-23T01:49:02;98196.53;;;15.75;100.00
29907;BME280;16776;50.958;10.994;2023-05-23T01:51:33;98191.34;;;15.75;100.00
29907;BME280;16776;50.958;10.994;2023-05-23T01:54:00;98187.53;;;15.67;100.00
29907;BME280;16776;50.958;10.994;2023-05-23T01:56:27;98187.69;;;15.64;100.00
29907;BME280;16776;50.958;10.994;2023-05-23T01:58:54;98202.59;;;15.60;100.00
29907;BME280;16776;50.958;10.994;2023-05-23T02:01:21;98173.16;;;15.44;100.00
29907;BME280;16776;50.958;10.994;2023-05-23T02:03:49;98201.00;;;15.58;100.00
29907;BME280;16776;50.958;10.994;2023-05-23T02:06:19;98205.25;;;15.59;100.00
29907;BME280;16776;50.958;10.994;2023-05-23T02:08:48;98206.44;;;15.53;100.00
29907;BME280;16776;50.958;10.994;2023-05-23T02:11:15;98198.78;;;15.50;100.00
29907;BME280;16776;50.958;10.994;2023-05-23T02:13:41;98198.88;;;15.49;100.00
29907;BME280;16776;50.958;10.994;2023-05-23T02:16:08;98193.84;;;15.46;100.00
29907;BME280;16776;50.958;10.994;2023-05-23T02:18:38;98207.75;;;15.45;100.00
29907;BME280;16776;50.958;10.994;2023-05-23T02:21:06;98209.44;;;15.46;100.00
29907;BME280;16776;50.958;10.994;2023-05-23T02:23:32;98214.75;;;15.42;100.00
29907;BME280;16776;50.958;10.994;2023-05-23T02:25:59;98216.63;;;15.40;100.00
29907;BME280;16776;50.958;10.994;2023-05-23T02:28:25;98218.47;;;15.38;100.00
29907;BME280;16776;50.958;10.994;2023-05-23T02:30:52;98209.25;;;15.33;100.00
29907;BME280;16776;50.958;10.994;2023-05-23T02:33:18;98220.28;;;15.36;100.00
29907;BME280;16776;50.958;10.994;2023-05-23T02:35:46;98219.53;;;15.34;100.00
29907;BME280;16776;50.958;10.994;2023-05-23T02:38:20;98221.81;;;15.40;100.00
29907;BME280;16776;50.958;10.994;2023-05-23T02:40:47;98226.69;;;15.29;100.00
29907;BME280;16776;50.958;10.994;2023-05-23T02:43:14;98219.06;;;15.26;100.00
29907;BME280;16776;50.958;10.994;2023-05-23T02:45:44;98224.91;;;15.30;100.00
29907;BME280;16776;50.958;10.994;2023-05-23T02:48:11;98228.75;;;15.23;100.00
29907;BME280;16776;50.958;10.994;2023-05-23T02:50:37;98234.03;;;15.21;100.00
29907;BME280;16776;50.958;10.994;2023-05-23T02:53:04;98232.44;;;15.19;100.00
29907;BME280;16776;50.958;10.994;2023-05-23T02:55:32;98240.13;;;15.20;100.00
29907;BME280;16776;50.958;10.994;2023-05-23T02:57:58;98242.88;;;15.17;100.00
29907;BME280;16776;50.958;10.994;2023-05-23T03:00:26;98236.94;;;15.15;100.00
29907;BME280;16776;50.958;10.994;2023-05-23T03:02:52;98231.84;;;15.14;100.00
29907;BME280;16776;50.958;10.994;2023-05-23T03:05:19;98242.28;;;15.12;100.00
29907;BME280;16776;50.958;10.994;2023-05-23T03:07:45;98241.44;;;15.12;100.00
29907;BME280;16776;50.958;10.994;2023-05-23T03:10:12;98238.09;;;15.10;100.00
29907;BME280;16776;50.958;10.994;2023-05-23T03:12:40;98239.69;;;15.12;100.00
29907;BME280;16776;50.958;10.994;2023-05-23T03:15:07;98238.91;;;15.10;100.00
29907;BME280;16776;50.958;10.994;2023-05-23T03:17:34;98233.84;;;15.09;100.00
29907;BME280;16776;50.958;10.994;2023-05-23T03:20:00;98230.41;;;15.08;100.00
29907;BME280;16776;50.958;10.994;2023-05-23T03:22:28;98226.97;;;15.08;100.00
29907;BME280;16776;50.958;10.994;2023-05-23T03:24:54;98227.03;;;15.06;100.00
29907;BME280;16776;50.958;10.994;2023-05-23T03:27:21;98240.00;;;15.06;100.00
29907;BME280;16776;50.958;10.994;2023-05-23T03:29:49;98242.53;;;15.08;100.00
29907;BME280;16776;50.958;10.994;2023-05-23T03:32:15;98240.97;;;15.03;100.00
29907;BME280;16776;50.958;10.994;2023-05-23T03:34:42;98241.09;;;15.02;100.00
29907;BME280;16776;50.958;10.994;2023-05-23T03:37:08;98242.91;;;15.00;100.00
29907;BME280;16776;50.958;10.994;2023-05-23T03:39:35;98242.97;;;14.98;100.00
29907;BME280;16776;50.958;10.994;2023-05-23T03:42:02;98243.09;;;14.97;100.00
29907;BME280;16776;50.958;10.994;2023-05-23T03:44:31;98238.88;;;14.94;100.00
29907;BME280;16776;50.958;10.994;2023-05-23T03:46:59;98238.03;;;14.94;100.00
29907;BME280;16776;50.958;10.994;2023-05-23T03:49:26;98242.56;;;14.90;100.00
29907;BME280;16776;50.958;10.994;2023-05-23T03:51:52;98240.03;;;14.89;100.00
29907;BME280;16776;50.958;10.994;2023-05-23T03:54:19;98239.19;;;14.88;100.00
29907;BME280;16776;50.958;10.994;2023-05-23T03:56:46;98247.03;;;14.87;100.00
29907;BME280;16776;50.958;10.994;2023-05-23T03:59:17;98247.22;;;14.84;100.00
29907;BME280;16776;50.958;10.994;2023-05-23T04:01:43;98242.03;;;14.84;100.00
29907;BME280;16776;50.958;10.994;2023-05-23T04:04:11;98251.44;;;14.85;100.00
29907;BME280;16776;50.958;10.994;2023-05-23T04:06:38;98247.34;;;14.81;100.00
29907;BME280;16776;50.958;10.994;2023-05-23T04:09:05;98250.84;;;14.80;100.00
29907;BME280;16776;50.958;10.994;2023-05-23T04:11:31;98252.69;;;14.78;100.00
29907;BME280;16776;50.958;10.994;2023-05-23T04:13:58;98254.53;;;14.76;100.00
29907;BME280;16776;50.958;10.994;2023-05-23T04:16:26;98255.56;;;14.72;100.00
29907;BME280;16776;50.958;10.994;2023-05-23T04:18:52;98260.53;;;14.76;100.00
29907;BME280;16776;50.958;10.994;2023-05-23T04:21:21;98263.81;;;14.80;100.00
29907;BME280;16776;50.958;10.994;2023-05-23T04:23:50;98263.06;;;14.78;100.00
29907;BME280;16776;50.958;10.994;2023-05-23T04:26:17;98264.72;;;14.79;100.00
29907;BME280;16776;50.958;10.994;2023-05-23T04:28:45;98266.41;;;14.80;100.00
29907;BME280;16776;50.958;10.994;2023-05-23T04:31:13;98270.59;;;14.82;100.00
29907;BME280;16776;50.958;10.994;2023-05-23T04:33:39;98256.63;;;14.85;100.00
29907;BME280;16776;50.958;10.994;2023-05-23T04:36:07;98275.50;;;14.88;100.00
29907;BME280;16776;50.958;10.994;2023-05-23T04:38:35;98271.69;;;14.95;100.00
29907;BME280;16776;50.958;10.994;2023-05-23T04:41:03;98273.88;;;15.03;100.00
29907;BME280;16776;50.958;10.994;2023-05-23T04:43:30;98266.41;;;15.14;100.00
29907;BME280;16776;50.958;10.994;2023-05-23T04:45:59;98268.28;;;15.28;100.00
29907;BME280;16776;50.958;10.994;2023-05-23T04:48:29;98278.59;;;15.47;100.00
29907;BME280;16776;50.958;10.994;2023-05-23T04:50:56;98279.94;;;15.54;100.00
29907;BME280;16776;50.958;10.994;2023-05-23T04:53:26;98276.13;;;15.61;100.00
29907;BME280;16776;50.958;10.994;2023-05-23T04:55:54;98280.13;;;15.66;100.00
29907;BME280;16776;50.958;10.994;2023-05-23T04:58:20;98285.31;;;15.66;100.00
29907;BME280;16776;50.958;10.994;2023-05-23T05:00:47;98286.06;;;15.68;100.00
29907;BME280;16776;50.958;10.994;2023-05-23T05:03:14;98288.66;;;15.68;100.00
29907;BME280;16776;50.958;10.994;2023-05-23T05:05:40;98288.66;;;15.68;100.00
29907;BME280;16776;50.958;10.994;2023-05-23T05:08:07;98287.81;;;15.68;100.00
29907;BME280;16776;50.958;10.994;2023-05-23T05:10:33;98282.72;;;15.66;100.00
29907;BME280;16776;50.958;10.994;2023-05-23T05:13:01;98297.47;;;15.66;100.00
29907;BME280;16776;50.958;10.994;2023-05-23T05:15:28;98294.34;;;15.59;100.00
29907;BME280;16776;50.958;10.994;2023-05-23T05:17:55;98302.38;;;15.55;100.00
29907;BME280;16776;50.958;10.994;2023-05-23T05:20:22;98317.25;;;15.51;100.00
29907;BME280;16776;50.958;10.994;2023-05-23T05:22:54;98312.91;;;15.52;100.00
29907;BME280;16776;50.958;10.994;2023-05-23T05:25:21;98318.75;;;15.39;100.00
29907;BME280;16776;50.958;10.994;2023-05-23T05:27:48;98325.94;;;15.34;100.00
29907;BME280;16776;50.958;10.994;2023-05-23T05:30:16;98330.34;;;15.32;100.00
29907;BME280;16776;50.958;10.994;2023-05-23T05:32:45;98337.56;;;15.26;100.00
29907;BME280;16776;50.958;10.994;2023-05-23T05:35:12;98337.69;;;15.23;100.00
29907;BME280;16776;50.958;10.994;2023-05-23T05:37:39;98336.97;;;15.21;100.00
29907;BME280;16776;50.958;10.994;2023-05-23T05:40:06;98341.38;;;15.19;100.00
29907;BME280;16776;50.958;10.994;2023-05-23T05:42:34;98340.53;;;15.18;100.00
29907;BME280;16776;50.958;10.994;2023-05-23T05:45:02;98340.53;;;15.18;100.00
29907;BME280;16776;50.958;10.994;2023-05-23T05:47:30;98341.31;;;15.20;100.00
29907;BME280;16776;50.958;10.994;2023-05-23T05:49:57;98346.56;;;15.19;100.00
29907;BME280;16776;50.958;10.994;2023-05-23T05:52:23;98339.69;;;15.18;100.00
29907;BME280;16776;50.958;10.994;2023-05-23T05:54:50;98343.13;;;15.18;100.00
29907;BME280;16776;50.958;10.994;2023-05-23T05:57:16;98343.19;;;15.17;100.00
29907;BME280;16776;50.958;10.994;2023-05-23T05:59:43;98344.81;;;15.19;100.00
29907;BME280;16776;50.958;10.994;2023-05-23T06:02:10;98337.03;;;15.19;100.00
29907;BME280;16776;50.958;10.994;2023-05-23T06:04:38;98338.53;;;15.23;100.00
29907;BME280;16776;50.958;10.994;2023-05-23T06:07:04;98340.41;;;15.21;100.00
29907;BME280;16776;50.958;10.994;2023-05-23T06:09:31;98327.63;;;15.17;100.00
29907;BME280;16776;50.958;10.994;2023-05-23T06:11:58;98337.63;;;15.24;100.00
29907;BME280;16776;50.958;10.994;2023-05-23T06:14:25;98344.50;;;15.25;100.00
29907;BME280;16776;50.958;10.994;2023-05-23T06:16:52;98348.84;;;15.25;100.00
29907;BME280;16776;50.958;10.994;2023-05-23T06:19:18;98342.69;;;15.27;100.00
29907;BME280;16776;50.958;10.994;2023-05-23T06:21:46;98346.13;;;15.28;100.00
29907;BME280;16776;50.958;10.994;2023-05-23T06:24:13;98344.50;;;15.25;100.00
29907;BME280;16776;50.958;10.994;2023-05-23T06:26:39;98350.59;;;15.24;100.00
29907;BME280;16776;50.958;10.994;2023-05-23T06:29:06;98351.44;;;15.25;100.00
29907;BME280;16776;50.958;10.994;2023-05-23T06:31:33;98349.69;;;15.25;100.00
29907;BME280;16776;50.958;10.994;2023-05-23T06:34:00;98353.97;;;15.26;100.00
29907;BME280;16776;50.958;10.994;2023-05-23T06:36:29;98352.81;;;15.32;100.00
29907;BME280;16776;50.958;10.994;2023-05-23T06:38:57;98352.88;;;15.30;100.00
29907;BME280;16776;50.958;10.994;2023-05-23T06:41:24;98352.16;;;15.28;100.00
29907;BME280;16776;50.958;10.994;2023-05-23T06:43:51;98354.75;;;15.28;100.00
29907;BME280;16776;50.958;10.994;2023-05-23T06:46:18;98360.84;;;15.27;100.00
29907;BME280;16776;50.958;10.994;2023-05-23T06:48:45;98356.63;;;15.25;100.00
29907;BME280;16776;50.958;10.994;2023-05-23T06:51:11;98363.66;;;15.23;100.00
29907;BME280;16776;50.958;10.994;2023-05-23T06:53:40;98360.31;;;15.21;100.00
29907;BME280;16776;50.958;10.994;2023-05-23T06:56:08;98364.66;;;15.20;100.00
29907;BME280;16776;50.958;10.994;2023-05-23T06:58:35;98356.28;;;15.15;100.00
29907;BME280;16776;50.958;10.994;2023-05-23T07:01:02;98365.03;;;15.13;100.00
29907;BME280;16776;50.958;10.994;2023-05-23T07:03:28;98353.97;;;15.09;100.00
29907;BME280;16776;50.958;10.994;2023-05-23T07:05:56;98355.81;;;15.07;100.00
29907;BME280;16776;50.958;10.994;2023-05-23T07:08:23;98358.47;;;15.06;100.00
29907;BME280;16776;50.958;10.994;2023-05-23T07:10:50;98361.91;;;15.06;100.00
29907;BME280;16776;50.958;10.994;2023-05-23T07:13:18;98357.31;;;15.11;100.00
29907;BME280;16776;50.958;10.994;2023-05-23T07:15:44;98358.63;;;15.20;100.00
29907;BME280;16776;50.958;10.994;2023-05-23T07:18:12;98368.28;;;15.35;100.00
29907;BME280;16776;50.958;10.994;2023-05-23T07:20:39;98365.81;;;15.49;100.00
29907;BME280;16776;50.958;10.994;2023-05-23T07:23:09;98371.00;;;15.66;100.00
29907;BME280;16776;50.958;10.994;2023-05-23T07:25:35;98364.72;;;15.70;100.00
29907;BME280;16776;50.958;10.994;2023-05-23T07:28:04;98365.91;;;15.80;100.00
29907;BME280;16776;50.958;10.994;2023-05-23T07:30:32;98358.56;;;15.89;100.00
29907;BME280;16776;50.958;10.994;2023-05-23T07:32:58;98371.41;;;15.92;100.00
29907;BME280;16776;50.958;10.994;2023-05-23T07:35:25;98374.66;;;15.95;100.00
29907;BME280;16776;50.958;10.994;2023-05-23T07:37:52;98380.63;;;15.97;100.00
29907;BME280;16776;50.958;10.994;2023-05-23T07:40:19;98377.84;;;16.00;100.00
29907;BME280;16776;50.958;10.994;2023-05-23T07:42:46;98379.53;;;16.01;100.00
29907;BME280;16776;50.958;10.994;2023-05-23T07:45:12;98383.81;;;16.02;100.00
29907;BME280;16776;50.958;10.994;2023-05-23T07:47:43;98379.38;;;16.04;100.00
29907;BME280;16776;50.958;10.994;2023-05-23T07:50:11;98382.13;;;16.01;100.00
29907;BME280;16776;50.958;10.994;2023-05-23T07:52:37;98381.28;;;16.01;100.00
29907;BME280;16776;50.958;10.994;2023-05-23T07:55:05;98381.38;;;15.99;100.00
29907;BME280;16776;50.958;10.994;2023-05-23T07:57:32;98384.06;;;15.98;100.00
29907;BME280;16776;50.958;10.994;2023-05-23T07:59:58;98389.25;;;15.98;100.00
29907;BME280;16776;50.958;10.994;2023-05-23T08:02:25;98383.63;;;15.90;100.00
29907;BME280;16776;50.958;10.994;2023-05-23T08:04:59;98388.09;;;16.03;100.00
29907;BME280;16776;50.958;10.994;2023-05-23T08:07:26;98393.59;;;15.97;100.00
29907;BME280;16776;50.958;10.994;2023-05-23T08:09:52;98395.28;;;15.98;100.00
29907;BME280;16776;50.958;10.994;2023-05-23T08:12:19;98402.16;;;15.99;100.00
29907;BME280;16776;50.958;10.994;2023-05-23T08:14:46;98405.69;;;15.98;100.00
29907;BME280;16776;50.958;10.994;2023-05-23T08:17:12;98403.16;;;15.97;100.00
29907;BME280;16776;50.958;10.994;2023-05-23T08:19:39;98397.19;;;15.95;100.00
29907;BME280;16776;50.958;10.994;2023-05-23T08:22:07;98399.78;;;15.95;100.00
29907;BME280;16776;50.958;10.994;2023-05-23T08:24:34;98397.44;;;15.90;100.00
29907;BME280;16776;50.958;10.994;2023-05-23T08:27:00;98391.47;;;15.88;100.00
29907;BME280;16776;50.958;10.994;2023-05-23T08:31:56;98403.88;;;15.83;100.00
29907;BME280;16776;50.958;10.994;2023-05-23T08:34:23;98405.69;;;15.81;100.00
29907;BME280;16776;50.958;10.994;2023-05-23T08:36:52;98405.78;;;15.79;100.00
29907;BME280;16776;50.958;10.994;2023-05-23T08:39:20;98404.03;;;15.80;100.00
29907;BME280;16776;50.958;10.994;2023-05-23T08:41:48;98411.91;;;15.78;100.00
29907;BME280;16776;50.958;10.994;2023-05-23T08:44:15;98412.81;;;15.77;100.00
29907;BME280;16776;50.958;10.994;2023-05-23T08:46:44;98408.28;;;15.81;100.00
29907;BME280;16776;50.958;10.994;2023-05-23T08:49:14;98409.22;;;15.80;100.00
29907;BME280;16776;50.958;10.994;2023-05-23T08:51:43;98414.50;;;15.78;100.00
29907;BME280;16776;50.958;10.994;2023-05-23T08:54:10;98411.00;;;15.79;100.00
29907;BME280;16776;50.958;10.994;2023-05-23T08:56:39;98418.59;;;15.83;100.00
29907;BME280;16776;50.958;10.994;2023-05-23T08:59:11;98413.47;;;15.81;100.00
29907;BME280;16776;50.958;10.994;2023-05-23T09:01:40;98416.84;;;15.83;100.00
29907;BME280;16776;50.958;10.994;2023-05-23T09:04:11;98418.59;;;15.83;100.00
29907;BME280;16776;50.958;10.994;2023-05-23T09:06:37;98425.63;;;15.80;100.00
29907;BME280;16776;50.958;10.994;2023-05-23T09:09:04;98420.53;;;15.79;100.00
29907;BME280;16776;50.958;10.994;2023-05-23T09:11:31;98418.09;;;15.76;100.00
29907;BME280;16776;50.958;10.994;2023-05-23T09:13:59;98425.94;;;15.74;100.00
29907;BME280;16776;50.958;10.994;2023-05-23T09:16:31;98413.06;;;15.73;100.00
29907;BME280;16776;50.958;10.994;2023-05-23T09:18:59;98422.81;;;15.68;100.00
29907;BME280;16776;50.958;10.994;2023-05-23T09:21:34;98424.66;;;15.66;100.00
29907;BME280;16776;50.958;10.994;2023-05-23T09:24:01;98423.00;;;15.65;100.00
29907;BME280;16776;50.958;10.994;2023-05-23T09:26:28;98426.50;;;15.64;100.00
29907;BME280;16776;50.958;10.994;2023-05-23T09:28:56;98428.94;;;15.67;100.00
29907;BME280;16776;50.958;10.994;2023-05-23T09:31:30;98430.47;;;15.71;100.00
29907;BME280;16776;50.958;10.994;2023-05-23T09:33:57;98434.97;;;15.67;100.00
29907;BME280;16776;50.958;10.994;2023-05-23T09:36:26;98442.53;;;15.72;100.00
29907;BME280;16776;50.958;10.994;2023-05-23T09:38:53;98441.75;;;15.70;100.00
29907;BME280;16776;50.958;10.994;2023-05-23T09:41:20;98442.59;;;15.70;100.00
29907;BME280;16776;50.958;10.994;2023-05-23T09:43:50;98439.75;;;15.75;100.00
29907;BME280;16776;50.958;10.994;2023-05-23T09:46:20;98441.75;;;15.70;100.00
29907;BME280;16776;50.958;10.994;2023-05-23T09:48:48;98444.28;;;15.71;100.00
29907;BME280;16776;50.958;10.994;2023-05-23T09:51:18;98436.56;;;15.70;100.00
29907;BME280;16776;50.958;10.994;2023-05-23T09:53:46;98433.38;;;15.65;100.00
29907;BME280;16776;50.958;10.994;2023-05-23T09:56:15;98435.72;;;15.69;100.00
29907;BME280;16776;50.958;10.994;2023-05-23T09:58:46;98433.19;;;15.68;100.00
29907;BME280;16776;50.958;10.994;2023-05-23T10:01:13;98436.03;;;15.63;100.00
29907;BME280;16776;50.958;10.994;2023-05-23T10:03:44;98439.22;;;15.68;100.00
29907;BME280;16776;50.958;10.994;2023-05-23T10:06:23;98443.31;;;15.74;100.00
29907;BME280;16776;50.958;10.994;2023-05-23T10:08:56;98443.59;;;15.68;100.00
29907;BME280;16776;50.958;10.994;2023-05-23T10:14:34;98441.16;;;15.65;100.00
29907;BME280;16776;50.958;10.994;2023-05-23T10:17:07;98444.59;;;15.65;100.00
29907;BME280;16776;50.958;10.994;2023-05-23T10:19:42;98449.78;;;15.65;100.00
29907;BME280;16776;50.958;10.994;2023-05-23T10:22:12;98443.81;;;15.63;100.00
29907;BME280;16776;50.958;10.994;2023-05-23T10:24:40;98449.25;;;15.59;100.00
29907;BME280;16776;50.958;10.994;2023-05-23T10:27:08;98444.19;;;15.56;100.00
29907;BME280;16776;50.958;10.994;2023-05-23T10:29:34;98443.34;;;15.55;100.00
29907;BME280;16776;50.958;10.994;2023-05-23T10:32:02;98449.38;;;15.56;100.00
29907;BME280;16776;50.958;10.994;2023-05-23T10:34:35;98444.84;;;15.61;100.00
29907;BME280;16776;50.958;10.994;2023-05-23T10:37:06;98447.44;;;15.61;100.00
29907;BME280;16776;50.958;10.994;2023-05-23T10:39:47;98448.50;;;15.74;100.00
29907;BME280;16776;50.958;10.994;2023-05-23T10:42:21;98452.59;;;15.78;100.00
29907;BME280;16776;50.958;10.994;2023-05-23T10:44:49;98455.97;;;15.80;100.00
29907;BME280;16776;50.958;10.994;2023-05-23T10:47:26;98458.78;;;15.93;100.00
29907;BME280;16776;50.958;10.994;2023-05-23T10:49:54;98456.19;;;15.93;100.00
29907;BME280;16776;50.958;10.994;2023-05-23T10:52:23;98452.31;;;16.00;100.00
29907;BME280;16776;50.958;10.994;2023-05-23T10:54:53;98449.84;;;15.98;100.00
29907;BME280;16776;50.958;10.994;2023-05-23T10:57:24;98457.44;;;16.01;100.00
29907;BME280;16776;50.958;10.994;2023-05-23T10:59:52;98451.91;;;15.92;100.00
29907;BME280;16776;50.958;10.994;2023-05-23T11:02:25;98464.19;;;16.05;100.00
29907;BME280;16776;50.958;10.994;2023-05-23T11:05:17;98455.22;;;16.11;100.00
29907;BME280;16776;50.958;10.994;2023-05-23T11:07:43;98462.81;;;15.98;100.00
29907;BME280;16776;50.958;10.994;2023-05-23T11:10:12;98464.41;;;16.01;100.00
29907;BME280;16776;50.958;10.994;2023-05-23T11:12:40;98467.25;;;15.96;100.00
29907;BME280;16776;50.958;10.994;2023-05-23T11:15:19;98466.94;;;16.02;100.00
29907;BME280;16776;50.958;10.994;2023-05-23T11:17:51;98467.38;;;15.93;100.00
29907;BME280;16776;50.958;10.994;2023-05-23T11:20:19;98473.13;;;15.83;100.00
29907;BME280;16776;50.958;10.994;2023-05-23T11:22:58;98484.38;;;15.83;100.00
29907;BME280;16776;50.958;10.994;2023-05-23T11:25:40;98482.69;;;15.82;100.00
29907;BME280;16776;50.958;10.994;2023-05-23T11:28:07;98484.38;;;15.66;100.00
29907;BME280;16776;50.958;10.994;2023-05-23T11:30:34;98476.72;;;15.63;100.00
29907;BME280;16776;50.958;10.994;2023-05-23T11:33:05;98482.63;;;15.66;100.00
29907;BME280;16776;50.958;10.994;2023-05-23T11:35:41;98494.00;;;15.64;100.00
29907;BME280;16776;50.958;10.994;2023-05-23T11:38:08;98485.59;;;15.59;100.00
29907;BME280;16776;50.958;10.994;2023-05-23T11:40:37;98483.78;;;15.61;100.00
29907;BME280;16776;50.958;10.994;2023-05-23T11:43:08;98493.06;;;15.65;100.00
29907;BME280;16776;50.958;10.994;2023-05-23T11:45:36;98487.09;;;15.63;100.00
29907;BME280;16776;50.958;10.994;2023-05-23T11:48:06;98488.50;;;15.70;100.00
29907;BME280;16776;50.958;10.994;2023-05-23T11:50:34;98495.50;;;15.68;100.00
29907;BME280;16776;50.958;10.994;2023-05-23T11:53:08;98504.91;;;15.70;100.00
29907;BME280;16776;50.958;10.994;2023-05-23T11:55:38;98495.06;;;15.77;100.00
29907;BME280;16776;50.958;10.994;2023-05-23T11:58:05;98489.03;;;15.76;100.00
29907;BME280;16776;50.958;10.994;2023-05-23T12:00:33;98497.41;;;15.81;100.00
29907;BME280;16776;50.958;10.994;2023-05-23T12:03:05;98504.84;;;15.89;100.00
29907;BME280;16776;50.958;10.994;2023-05-23T12:05:32;98507.66;;;15.85;100.00
29907;BME280;16776;50.958;10.994;2023-05-23T12:07:59;98511.03;;;15.87;100.00
29907;BME280;16776;50.958;10.994;2023-05-23T12:10:26;98509.19;;;15.89;100.00
29907;BME280;16776;50.958;10.994;2023-05-23T12:12:56;98517.03;;;15.87;100.00
29907;BME280;16776;50.958;10.994;2023-05-23T12:15:25;98511.78;;;15.89;100.00
29907;BME280;16776;50.958;10.994;2023-05-23T12:17:54;98525.78;;;15.86;100.00
29907;BME280;16776;50.958;10.994;2023-05-23T12:20:21;98531.28;;;15.80;100.00
29907;BME280;16776;50.958;10.994;2023-05-23T12:22:53;98536.47;;;15.80;100.00
29907;BME280;16776;50.958;10.994;2023-05-23T12:25:19;98532.63;;;15.70;100.00
29907;BME280;16776;50.958;10.994;2023-05-23T12:27:47;98534.63;;;15.65;100.00
29907;BME280;16776;50.958;10.994;2023-05-23T12:30:14;98529.72;;;15.59;100.00
29907;BME280;16776;50.958;10.994;2023-05-23T12:32:43;98535.16;;;15.54;100.00
29907;BME280;16776;50.958;10.994;2023-05-23T12:35:12;98541.38;;;15.50;100.00
29907;BME280;16776;50.958;10.994;2023-05-23T12:37:40;98553.19;;;15.38;100.00
29907;BME280;16776;50.958;10.994;2023-05-23T12:40:11;98550.88;;;15.32;100.00
29907;BME280;16776;50.958;10.994;2023-05-23T12:42:51;98562.09;;;15.33;100.00
29907;BME280;16776;50.958;10.994;2023-05-23T12:45:18;98555.09;;;15.16;100.00
29907;BME280;16776;50.958;10.994;2023-05-23T12:47:45;98564.97;;;15.08;100.00
29907;BME280;16776;50.958;10.994;2023-05-23T12:50:13;98572.88;;;15.05;100.00
29907;BME280;16776;50.958;10.994;2023-05-23T12:52:39;98562.03;;;14.97;100.00